createdAt,value
2019-04-24T04:01:51.905Z,24.00
2019-04-24T04:02:50.851Z,28.00
2019-04-24T04:08:44.779Z,44.00
2019-04-24T04:10:14.925Z,56.00
2019-04-24T04:14:34.894Z,80.00
2019-04-24T04:19:55.067Z,132.00
2019-04-24T04:22:04.312Z,156.00
2019-04-24T04:25:55.043Z,196.00
2019-04-24T04:28:57.353Z,260.00
2019-04-24T04:31:31.111Z,296.00
2019-04-24T04:34:28.573Z,244.00
2019-04-24T04:36:32.025Z,236.00
2019-04-24T04:40:09.379Z,272.00
2019-04-24T04:41:52.755Z,300.00
2019-04-24T04:42:58.557Z,316.00
2019-04-24T04:47:27.274Z,412.00
2019-04-24T04:48:59.575Z,440.00
2019-04-24T04:50:39.063Z,532.00
2019-04-24T04:51:43.828Z,568.00
2019-04-24T04:54:59.304Z,700.00
2019-04-24T04:57:30.599Z,764.00
2019-04-24T04:59:06.882Z,780.00
2019-04-24T05:00:15.797Z,888.00
2019-04-24T05:02:31.465Z,1152.00
2019-04-24T05:09:26.568Z,2200.00
2019-04-24T05:10:37.674Z,2284.00
2019-04-24T05:11:50.752Z,2304.00
2019-04-24T05:13:37.263Z,2236.00
2019-04-24T05:16:53.072Z,2084.00
2019-04-24T05:17:45.895Z,2072.00
2019-04-24T05:20:22.686Z,1852.00
2019-04-24T05:22:12.394Z,1592.00
2019-04-24T05:23:07.140Z,1560.00
2019-04-24T05:24:57.268Z,1648.00
2019-04-24T05:27:51.494Z,1800.00
2019-04-24T05:29:01.352Z,1832.00
2019-04-24T05:31:48.916Z,1952.00
2019-04-24T05:33:31.896Z,2284.00
2019-04-24T05:34:49.361Z,2560.00
2019-04-24T05:36:27.090Z,3024.00
2019-04-24T05:37:39.909Z,3228.00
2019-04-24T05:43:37.526Z,2884.00
2019-04-24T05:45:17.006Z,2868.00
2019-04-24T05:48:58.879Z,3388.00
2019-04-24T05:50:57.268Z,3480.00
2019-04-24T05:52:03.666Z,3484.00
2019-04-24T05:53:47.763Z,3580.00
2019-04-24T05:54:39.939Z,3516.00
2019-04-24T05:56:47.464Z,3344.00
2019-04-24T05:59:37.341Z,3344.00
2019-04-24T06:00:37.819Z,3508.00
2019-04-24T06:03:30.714Z,4000.00
2019-04-24T06:05:24.109Z,4256.00
2019-04-24T06:06:39.114Z,4488.00
2019-04-24T06:08:12.139Z,4696.00
2019-04-24T06:09:07.913Z,4784.00
2019-04-24T06:12:00.551Z,4980.00
2019-04-24T06:17:47.957Z,3940.00
2019-04-24T06:19:51.377Z,4244.00
2019-04-24T06:22:35.941Z,5264.00
2019-04-24T06:23:50.288Z,5448.00
2019-04-24T06:25:32.648Z,5556.00
2019-04-24T06:26:28.931Z,5644.00
2019-04-24T06:29:12.674Z,5940.00
2019-04-24T06:31:15.124Z,6384.00
2019-04-24T06:35:18.452Z,7428.00
2019-04-24T06:37:03.829Z,7916.00
2019-04-24T06:39:44.071Z,8468.00
2019-04-24T06:42:42.083Z,8700.00
2019-04-24T06:43:34.495Z,8592.00
2019-04-24T06:46:31.092Z,8376.00
2019-04-24T06:48:33.327Z,8408.00
2019-04-24T06:51:30.766Z,8652.00
2019-04-24T06:52:29.053Z,8892.00
2019-04-24T06:54:06.786Z,9132.00
2019-04-24T06:55:36.477Z,9220.00
2019-04-24T06:57:19.745Z,9376.00
2019-04-24T06:58:08.565Z,9468.00
2019-04-24T07:00:07.198Z,9296.00
2019-04-24T07:00:54.062Z,8972.00
2019-04-24T07:02:56.352Z,8420.00
2019-04-24T07:06:38.347Z,8500.00
2019-04-24T07:08:31.480Z,8764.00
2019-04-24T07:09:44.119Z,9224.00
2019-04-24T07:11:27.521Z,9712.00
2019-04-24T07:12:26.021Z,9672.00
2019-04-24T07:15:24.334Z,10596.00
2019-04-24T07:17:20.346Z,10720.00
2019-04-24T07:20:16.212Z,9436.00
2019-04-24T07:21:03.312Z,8896.00
2019-04-24T07:22:53.467Z,8324.00
2019-04-24T07:24:05.557Z,8336.00
2019-04-24T07:26:48.102Z,7720.00
2019-04-24T07:29:53.342Z,45376.00
2019-04-24T07:31:46.313Z,28000.00
2019-04-24T07:32:42.850Z,29824.00
2019-04-24T07:34:39.258Z,15936.00
2019-04-24T07:36:05.876Z,32064.00
2019-04-24T07:37:20.480Z,49792.00
2019-04-24T07:38:15.330Z,48448.00
2019-04-24T07:40:28.240Z,47072.00
2019-04-24T07:43:14.986Z,32480.00
2019-04-24T07:45:56.417Z,25472.00
2019-04-24T07:46:54.051Z,26720.00
2019-04-24T07:48:58.534Z,44832.00
2019-04-24T07:49:46.308Z,44416.00
2019-04-24T07:52:55.177Z,42880.00
2019-04-24T07:55:34.102Z,42720.00
2019-04-24T07:57:25.290Z,42752.00
2019-04-24T07:58:30.577Z,43040.00
2019-04-24T08:00:20.292Z,42496.00
2019-04-24T08:01:26.656Z,42432.00
2019-04-24T08:04:16.830Z,42016.00
2019-04-24T08:06:04.500Z,42176.00
2019-04-24T08:11:51.363Z,13392.00
2019-04-24T08:12:39.227Z,10436.00
2019-04-24T08:15:03.373Z,13596.00
2019-04-24T08:17:51.998Z,16480.00
2019-04-24T08:18:27.683Z,16608.00
2019-04-24T08:20:45.378Z,20192.00
2019-04-24T08:21:22.233Z,45728.00
2019-04-24T08:23:28.965Z,36192.00
2019-04-24T08:24:28.263Z,27232.00
2019-04-24T08:27:15.673Z,15104.00
2019-04-24T08:29:07.682Z,12684.00
2019-04-24T08:30:32.985Z,12660.00
2019-04-24T08:32:57.048Z,12596.00
2019-04-24T08:34:50.620Z,16160.00
2019-04-24T08:35:58.291Z,15648.00
2019-04-24T08:37:53.979Z,12000.00
2019-04-24T08:39:03.996Z,12736.00
2019-04-24T08:40:32.453Z,12980.00
2019-04-24T08:41:40.234Z,12296.00
2019-04-24T08:47:31.842Z,12648.00
2019-04-24T08:49:14.916Z,11836.00
2019-04-24T08:50:15.387Z,11888.00
2019-04-24T08:52:27.357Z,11280.00
2019-04-24T08:53:02.023Z,10876.00
2019-04-24T08:55:04.871Z,12228.00
2019-04-24T08:55:57.999Z,12660.00
2019-04-24T08:58:48.759Z,12544.00
2019-04-24T09:01:49.931Z,13292.00
2019-04-24T09:04:51.127Z,10268.00
2019-04-24T09:06:24.864Z,10820.00
2019-04-24T09:07:37.106Z,12228.00
2019-04-24T09:09:23.550Z,14624.00
2019-04-24T09:12:17.082Z,12004.00
2019-04-24T09:13:17.265Z,9536.00
2019-04-24T09:14:59.350Z,8536.00
2019-04-24T09:16:08.220Z,9076.00
2019-04-24T09:18:13.646Z,11488.00
2019-04-24T09:19:02.892Z,13252.00
2019-04-24T09:24:13.402Z,15968.00
2019-04-24T09:27:50.584Z,11252.00
2019-04-24T09:29:48.045Z,13628.00
2019-04-24T09:30:33.069Z,14752.00
2019-04-24T09:33:22.744Z,17984.00
2019-04-24T09:35:17.373Z,15680.00
2019-04-24T09:39:09.154Z,13908.00
2019-04-24T09:41:09.222Z,14240.00
2019-04-24T09:43:56.502Z,15392.00
2019-04-24T09:45:04.756Z,16704.00
2019-04-24T09:46:58.661Z,17536.00
2019-04-24T09:47:56.600Z,16288.00
2019-04-24T09:49:38.533Z,15040.00
2019-04-24T09:50:48.911Z,14308.00
2019-04-24T09:52:42.031Z,13456.00
2019-04-24T09:56:17.962Z,14752.00
2019-04-24T09:58:28.130Z,15392.00
2019-04-24T10:02:27.723Z,13180.00
2019-04-24T10:04:03.036Z,14116.00
2019-04-24T10:05:05.457Z,14528.00
2019-04-24T10:07:11.996Z,13576.00
2019-04-24T10:07:50.871Z,13456.00
2019-04-24T10:09:50.978Z,15808.00
2019-04-24T10:10:42.068Z,17120.00
2019-04-24T10:13:43.935Z,12076.00
2019-04-24T10:15:34.350Z,11748.00
2019-04-24T10:16:36.875Z,11816.00
2019-04-24T10:18:39.324Z,11584.00
2019-04-24T10:19:40.605Z,11604.00
2019-04-24T10:21:09.632Z,13340.00
2019-04-24T10:22:05.103Z,14584.00
2019-04-24T10:25:12.484Z,17056.00
2019-04-24T10:28:02.019Z,15968.00
2019-04-24T10:29:49.409Z,14816.00
2019-04-24T10:32:45.104Z,12980.00
2019-04-24T10:33:49.433Z,12592.00
2019-04-24T10:35:39.031Z,11548.00
2019-04-24T10:36:52.521Z,10600.00
2019-04-24T10:38:40.966Z,10484.00
2019-04-24T10:41:34.687Z,10972.00
2019-04-24T10:42:22.089Z,10204.00
2019-04-24T10:44:17.830Z,9652.00
2019-04-24T10:45:18.464Z,8820.00
2019-04-24T10:47:23.400Z,7444.00
2019-04-24T10:50:05.232Z,6400.00
2019-04-24T10:50:58.672Z,6004.00
2019-04-24T10:53:53.749Z,5284.00
2019-04-24T10:55:55.105Z,7484.00
2019-04-24T10:56:47.678Z,9232.00
2019-04-24T11:05:33.080Z,7048.00
2019-04-24T11:08:21.791Z,5360.00
2019-04-24T11:11:09.819Z,4664.00
2019-04-24T11:14:10.781Z,4496.00
2019-04-24T11:15:56.470Z,4448.00
2019-04-24T11:17:11.020Z,4452.00
2019-04-24T11:22:39.048Z,4532.00
2019-04-24T11:24:38.369Z,4632.00
2019-04-24T11:25:38.855Z,4684.00
2019-04-24T11:28:32.533Z,4968.00
2019-04-24T11:30:13.406Z,4920.00
2019-04-24T11:31:17.851Z,4876.00
2019-04-24T11:33:24.937Z,4788.00
2019-04-24T11:36:02.592Z,4728.00
2019-04-24T11:37:00.780Z,4676.00
2019-04-24T11:41:50.854Z,4492.00
2019-04-24T11:42:49.458Z,4692.00
2019-04-24T11:44:44.701Z,4832.00
2019-04-24T11:45:44.596Z,5016.00
2019-04-24T11:48:42.227Z,4868.00
2019-04-24T11:50:44.390Z,4780.00
2019-04-24T11:51:33.691Z,4752.00
2019-04-24T11:53:16.350Z,4752.00
2019-04-24T11:54:23.200Z,4824.00
2019-04-24T11:56:15.990Z,5500.00
2019-04-24T11:57:35.540Z,5792.00
2019-04-24T11:59:43.793Z,5848.00
2019-04-24T12:02:01.806Z,5508.00
2019-04-24T12:07:47.231Z,6304.00
2019-04-24T12:08:46.714Z,6912.00
2019-04-24T12:10:45.401Z,8752.00
2019-04-24T12:11:35.469Z,9128.00
2019-04-24T12:14:23.325Z,8204.00
2019-04-24T12:16:14.600Z,7408.00
2019-04-24T12:17:06.344Z,7084.00
2019-04-24T12:19:28.790Z,6516.00
2019-04-24T12:20:07.021Z,6228.00
2019-04-24T12:21:58.254Z,5760.00
2019-04-24T12:22:57.465Z,5544.00
2019-04-24T12:28:54.112Z,4772.00
2019-04-24T12:30:49.675Z,4672.00
2019-04-24T12:31:33.115Z,4596.00
2019-04-24T12:33:38.405Z,4500.00
2019-04-24T12:34:39.377Z,4452.00
2019-04-24T12:36:26.874Z,4344.00
2019-04-24T12:37:19.036Z,4288.00
2019-04-24T12:39:06.709Z,4176.00
2019-04-24T12:40:15.856Z,4156.00
2019-04-24T12:42:20.805Z,4140.00
2019-04-24T12:43:11.144Z,4132.00
2019-04-24T12:44:54.503Z,4092.00
2019-04-24T12:48:56.564Z,4120.00
2019-04-24T12:50:54.114Z,4080.00
2019-04-24T12:51:44.490Z,4096.00
2019-04-24T12:53:52.403Z,4100.00
2019-04-24T12:54:57.084Z,4104.00
2019-04-24T12:56:43.875Z,4148.00
2019-04-24T12:57:39.445Z,4060.00
2019-04-24T12:59:30.891Z,4120.00
2019-04-24T13:00:21.474Z,4092.00
2019-04-24T13:02:11.246Z,4056.00
2019-04-24T13:03:23.883Z,4036.00
2019-04-24T13:05:08.516Z,3984.00
2019-04-24T13:12:17.575Z,4072.00
2019-04-24T13:14:55.651Z,3888.00
2019-04-24T13:16:58.962Z,3932.00
2019-04-24T13:17:50.994Z,3980.00
2019-04-24T13:20:12.193Z,4032.00
2019-04-24T13:22:08.767Z,4052.00
2019-04-24T13:23:11.807Z,4072.00
2019-04-24T13:25:15.302Z,4088.00
2019-04-24T13:26:23.038Z,3964.00
2019-04-24T13:29:33.539Z,4108.00
2019-04-24T13:32:11.920Z,4084.00
2019-04-24T13:34:21.421Z,4056.00
2019-04-24T13:35:06.441Z,4044.00
2019-04-24T13:39:46.347Z,3988.00
2019-04-24T13:40:56.714Z,3988.00
2019-04-24T13:42:39.485Z,4236.00
2019-04-24T13:45:43.886Z,4120.00
2019-04-24T13:46:18.604Z,4020.00
2019-04-24T13:48:43.294Z,4040.00
2019-04-24T13:49:23.756Z,4028.00
2019-04-24T13:51:08.379Z,4016.00
2019-04-24T13:55:14.438Z,4060.00
2019-04-24T13:57:04.042Z,4072.00
2019-04-24T13:58:06.878Z,4072.00
2019-04-24T14:00:13.601Z,4004.00
2019-04-24T14:01:15.230Z,4016.00
2019-04-24T14:04:00.721Z,4164.00
2019-04-24T14:05:48.868Z,4060.00
2019-04-24T14:08:45.711Z,3196.00
2019-04-24T14:09:46.006Z,3148.00
2019-04-24T14:14:39.541Z,5220.00
2019-04-24T14:15:17.167Z,4684.00
2019-04-24T14:17:26.363Z,3968.00
2019-04-24T14:18:16.847Z,3804.00
2019-04-24T14:20:14.007Z,3072.00
2019-04-24T14:23:11.293Z,3840.00
2019-04-24T14:24:14.431Z,3900.00
2019-04-24T14:25:48.265Z,4160.00
2019-04-24T14:26:54.655Z,4612.00
2019-04-24T14:31:52.632Z,5940.00
2019-04-24T14:32:37.785Z,6148.00
2019-04-24T14:34:37.024Z,6464.00
2019-04-24T14:37:15.791Z,6412.00
2019-04-24T14:40:14.443Z,6196.00
2019-04-24T14:41:06.288Z,5820.00
2019-04-24T14:43:09.921Z,5472.00
2019-04-24T14:48:56.100Z,5072.00
2019-04-24T14:51:46.176Z,5416.00
2019-04-24T14:54:29.926Z,6468.00
2019-04-24T14:55:31.438Z,6700.00
2019-04-24T14:57:32.745Z,7508.00
2019-04-24T14:58:48.262Z,8228.00
2019-04-24T15:01:17.779Z,9376.00
2019-04-24T15:03:06.785Z,9780.00
2019-04-24T15:06:13.572Z,9748.00
2019-04-24T15:09:02.231Z,9504.00
2019-04-24T15:09:58.569Z,9208.00
2019-04-24T15:12:08.869Z,8248.00
2019-04-24T15:12:51.718Z,8104.00
2019-04-24T15:14:57.685Z,8196.00
2019-04-24T15:15:55.598Z,8044.00
2019-04-24T15:17:58.662Z,7680.00
2019-04-24T15:18:39.492Z,7480.00
2019-04-24T15:21:26.208Z,7416.00
2019-04-24T15:26:22.144Z,7692.00
2019-04-24T15:27:12.390Z,7584.00
2019-04-24T15:29:23.302Z,7048.00
2019-04-24T15:30:00.073Z,7092.00
2019-04-24T15:32:03.331Z,6564.00
2019-04-24T15:32:56.773Z,6032.00
2019-04-24T15:35:08.793Z,5440.00
2019-04-24T15:35:54.709Z,5412.00
2019-04-24T15:37:41.498Z,5284.00
2019-04-24T15:40:43.009Z,5156.00
2019-04-24T15:41:42.132Z,5172.00
2019-04-24T15:44:33.061Z,5268.00
2019-04-24T15:46:16.949Z,5204.00
2019-04-24T15:49:10.913Z,5316.00
2019-04-24T15:50:15.925Z,5348.00
2019-04-24T15:51:35.554Z,5448.00
2019-04-24T15:52:35.169Z,5628.00
2019-04-24T15:54:27.876Z,5312.00
2019-04-24T15:55:27.759Z,5352.00
2019-04-24T15:57:21.403Z,5324.00
2019-04-24T15:58:31.600Z,5232.00
2019-04-24T16:00:47.347Z,5196.00
2019-04-24T16:01:56.341Z,5244.00
2019-04-24T16:03:38.605Z,5152.00
2019-04-24T16:04:41.557Z,4664.00
2019-04-24T16:05:58.272Z,4804.00
2019-04-24T16:06:58.648Z,5160.00
2019-04-24T16:08:50.836Z,5136.00
2019-04-24T16:09:50.741Z,5128.00
2019-04-24T16:11:43.449Z,5036.00
2019-04-24T16:12:43.355Z,4924.00
2019-04-24T16:15:05.163Z,4848.00
2019-04-24T16:16:08.788Z,4788.00
2019-04-24T16:19:06.819Z,4664.00
2019-04-24T16:19:16.456Z,4760.00
2019-04-24T16:21:45.268Z,4620.00
2019-04-24T16:24:45.160Z,4624.00
2019-04-24T16:27:49.011Z,4548.00
2019-04-24T16:29:21.153Z,4456.00
2019-04-24T16:30:38.573Z,4384.00
2019-04-24T16:32:43.687Z,4240.00
2019-04-24T16:36:24.850Z,4156.00
2019-04-24T16:38:08.909Z,4108.00
2019-04-24T16:40:59.875Z,3956.00
2019-04-24T16:44:04.323Z,3744.00
2019-04-24T16:45:06.537Z,3708.00
2019-04-24T16:48:21.157Z,3604.00
2019-04-24T16:49:44.146Z,3432.00
2019-04-24T16:50:44.054Z,3348.00
2019-04-24T16:52:24.440Z,3180.00
2019-04-24T16:53:26.681Z,3144.00
2019-04-24T16:55:18.980Z,3120.00
2019-04-24T16:56:30.229Z,3144.00
2019-04-24T16:59:09.691Z,3180.00
2019-04-24T17:05:12.107Z,2996.00
2019-04-24T17:06:53.053Z,2732.00
2019-04-24T17:08:04.108Z,2664.00
2019-04-24T17:10:48.797Z,2552.00
2019-04-24T17:12:39.412Z,2452.00
2019-04-24T17:13:38.175Z,2416.00
2019-04-24T17:16:58.632Z,2428.00
2019-04-24T17:18:23.701Z,2372.00
2019-04-24T17:19:33.783Z,2372.00
2019-04-24T17:21:31.730Z,2352.00
2019-04-24T17:22:30.425Z,2288.00
2019-04-24T17:24:07.954Z,2180.00
2019-04-24T17:25:25.651Z,2112.00
2019-04-24T17:28:08.256Z,1880.00
2019-04-24T17:29:53.803Z,1732.00
2019-04-24T17:31:04.117Z,1648.00
2019-04-24T17:32:48.197Z,1580.00
2019-04-24T17:33:53.488Z,1580.00
2019-04-24T17:35:38.751Z,1552.00
2019-04-24T17:36:25.159Z,1524.00
2019-04-24T17:38:02.545Z,1448.00
2019-04-24T17:39:02.091Z,1408.00
2019-04-24T17:40:55.700Z,1288.00
2019-04-24T17:41:58.319Z,1248.00
2019-04-24T17:45:16.254Z,1264.00
2019-04-24T17:48:15.506Z,1252.00
2019-04-24T17:51:07.558Z,1232.00
2019-04-24T17:53:00.128Z,1196.00
2019-04-24T17:53:54.485Z,1160.00
2019-04-24T17:55:48.428Z,1068.00
2019-04-24T17:56:56.352Z,1016.00
2019-04-24T17:58:33.662Z,940.00
2019-04-24T18:00:04.083Z,840.00
2019-04-24T18:01:04.538Z,788.00
2019-04-24T18:03:04.715Z,716.00
2019-04-24T18:03:56.150Z,684.00
2019-04-24T18:05:48.858Z,572.00
2019-04-24T18:06:48.762Z,516.00
2019-04-24T18:08:41.439Z,448.00
2019-04-24T18:09:41.887Z,428.00
2019-04-24T18:11:34.074Z,380.00
2019-04-24T18:12:33.928Z,360.00
2019-04-24T18:14:26.611Z,332.00
2019-04-24T18:15:26.515Z,308.00
2019-04-24T18:17:19.214Z,256.00
2019-04-24T18:18:19.100Z,236.00
2019-04-24T18:20:12.613Z,200.00
2019-04-24T18:21:12.574Z,176.00
2019-04-24T18:23:04.548Z,144.00
2019-04-24T18:24:04.744Z,128.00
2019-04-24T18:25:56.990Z,108.00
2019-04-24T18:26:56.880Z,96.00
2019-04-24T18:28:49.590Z,84.00
2019-04-24T18:29:51.221Z,84.00
2019-04-24T18:31:42.242Z,72.00
2019-04-24T18:32:42.082Z,64.00
2019-04-24T18:34:34.774Z,52.00
2019-04-24T18:35:34.662Z,48.00
2019-04-24T18:37:27.338Z,36.00
2019-04-24T18:38:27.235Z,36.00
2019-04-24T18:40:21.341Z,28.00
2019-04-24T18:41:19.819Z,28.00
2019-04-24T18:43:13.158Z,20.00
2019-04-24T18:44:13.103Z,20.00
2019-04-24T18:46:05.134Z,16.00
2019-04-24T18:47:04.995Z,12.00
2019-04-24T18:48:57.708Z,8.00
2019-04-24T18:49:57.581Z,4.00
2019-04-24T18:51:50.372Z,4.00
2019-04-24T18:52:52.217Z,0.00
2019-04-24T18:54:43.414Z,0.00
2019-04-24T18:55:42.765Z,4.00
2019-04-24T18:57:35.470Z,4.00
2019-04-24T18:58:35.344Z,0.00
2019-04-24T19:00:28.025Z,0.00
2019-04-24T19:01:27.928Z,0.00
2019-04-24T19:03:22.121Z,0.00
2019-04-24T19:04:21.375Z,0.00
2019-04-24T19:06:25.078Z,0.00
2019-04-24T19:07:13.098Z,0.00
2019-04-24T19:09:06.427Z,0.00
2019-04-24T19:10:07.141Z,0.00
2019-04-24T19:11:58.371Z,0.00
2019-04-24T19:12:58.266Z,0.00
2019-04-24T19:14:52.102Z,0.00
2019-04-24T19:15:53.197Z,0.00
2019-04-24T19:17:54.275Z,0.00
2019-04-24T19:18:43.952Z,0.00
2019-04-24T19:20:36.635Z,0.00
2019-04-24T19:21:36.511Z,0.00
2019-04-24T19:23:29.209Z,0.00
2019-04-24T19:24:29.114Z,0.00
2019-04-24T19:26:22.609Z,0.00
2019-04-24T19:27:22.139Z,0.00
2019-04-24T19:29:14.375Z,0.00
2019-04-24T19:30:14.609Z,0.00
2019-04-24T19:32:06.957Z,0.00
2019-04-24T19:33:06.835Z,0.00
2019-04-24T19:34:59.514Z,0.00
2019-04-24T19:35:59.413Z,0.00
2019-04-24T19:37:52.529Z,0.00
2019-04-24T19:38:52.017Z,0.00
2019-04-24T19:40:44.701Z,0.00
2019-04-24T19:41:44.568Z,0.00
2019-04-24T19:43:37.244Z,0.00
2019-04-24T19:44:37.163Z,0.00
2019-04-24T19:46:31.372Z,0.00
2019-04-24T19:47:38.474Z,0.00
2019-04-24T19:49:25.870Z,0.00
2019-04-24T19:50:23.103Z,0.00
2019-04-24T19:52:15.306Z,0.00
2019-04-24T19:53:20.764Z,0.00
2019-04-24T19:55:07.552Z,0.00
2019-04-24T19:56:07.442Z,0.00
2019-04-24T19:58:00.183Z,0.00
2019-04-24T19:59:00.040Z,0.00
2019-04-24T20:00:52.715Z,0.00
2019-04-24T20:01:53.125Z,0.00
2019-04-24T20:03:45.312Z,0.00
2019-04-24T20:04:45.180Z,0.00
2019-04-24T20:06:37.894Z,0.00
2019-04-24T20:07:37.764Z,0.00
2019-04-24T20:09:30.485Z,0.00
2019-04-24T20:10:31.586Z,0.00
2019-04-24T20:12:23.252Z,0.00
2019-04-24T20:13:23.474Z,0.00
2019-04-24T20:15:16.329Z,0.00
2019-04-24T20:16:15.503Z,0.00
2019-04-24T20:18:08.177Z,0.00
2019-04-24T20:19:08.068Z,0.00
2019-04-24T20:21:00.780Z,0.00
2019-04-24T20:22:01.820Z,0.00
2019-04-24T20:23:53.341Z,0.00
2019-04-24T20:24:53.229Z,0.00
2019-04-24T20:26:45.933Z,0.00
2019-04-24T20:27:45.806Z,0.00
2019-04-24T20:29:38.479Z,0.00
2019-04-24T20:30:38.395Z,0.00
2019-04-24T20:32:31.224Z,0.00
2019-04-24T20:33:32.492Z,0.00
2019-04-24T20:35:23.636Z,0.00
2019-04-24T20:36:23.600Z,0.00
2019-04-24T20:38:16.681Z,0.00
2019-04-24T20:39:16.917Z,0.00
2019-04-24T20:41:08.827Z,0.00
2019-04-24T20:42:08.678Z,0.00
2019-04-24T20:44:02.474Z,0.00
2019-04-24T20:45:01.402Z,0.00
2019-04-24T20:46:53.952Z,0.00
2019-04-24T20:47:53.837Z,0.00
2019-04-24T20:49:46.526Z,0.00
2019-04-24T20:50:46.409Z,0.00
2019-04-24T20:52:39.131Z,0.00
2019-04-24T20:53:40.297Z,0.00
2019-04-24T20:55:32.665Z,0.00
2019-04-24T20:56:32.228Z,0.00
2019-04-24T20:58:25.313Z,0.00
2019-04-24T20:59:24.749Z,0.00
2019-04-24T21:01:17.730Z,0.00
2019-04-24T21:02:16.729Z,0.00
2019-04-24T21:04:09.414Z,0.00
2019-04-24T21:05:09.295Z,0.00
2019-04-24T21:07:01.985Z,0.00
2019-04-24T21:08:01.883Z,0.00
2019-04-24T21:09:54.567Z,0.00
2019-04-24T21:10:54.443Z,0.00
2019-04-24T21:12:47.123Z,0.00
2019-04-24T21:13:47.095Z,0.00
2019-04-24T21:15:41.038Z,0.00
2019-04-24T21:16:39.581Z,0.00
2019-04-24T21:18:32.636Z,0.00
2019-04-24T21:19:33.718Z,0.00
2019-04-24T21:21:24.868Z,0.00
2019-04-24T21:22:24.730Z,0.00
2019-04-24T21:24:17.422Z,0.00
2019-04-24T21:25:17.305Z,0.00
2019-04-24T21:27:11.435Z,0.00
2019-04-24T21:28:09.881Z,0.00
2019-04-24T21:30:02.548Z,0.00
2019-04-24T21:31:02.488Z,0.00
2019-04-24T21:32:55.855Z,0.00
2019-04-24T21:33:55.600Z,0.00
2019-04-24T21:35:49.821Z,0.00
2019-04-24T21:36:49.710Z,0.00
2019-04-24T21:38:43.538Z,0.00
2019-04-24T21:39:43.418Z,0.00
2019-04-24T21:41:36.109Z,0.00
2019-04-24T21:42:35.978Z,0.00
2019-04-24T21:44:28.667Z,0.00
2019-04-24T21:45:28.544Z,0.00
2019-04-24T21:47:22.940Z,0.00
2019-04-24T21:48:22.625Z,0.00
2019-04-24T21:50:13.818Z,0.00
2019-04-24T21:51:13.698Z,0.00
2019-04-24T21:53:06.374Z,0.00
2019-04-24T21:54:06.270Z,0.00
2019-04-24T21:55:58.960Z,0.00
2019-04-24T21:56:58.838Z,0.00
2019-04-24T21:58:51.525Z,0.00
2019-04-24T21:59:51.429Z,0.00
